Time;durP1;ratioP1;P1;durP2;ratioP2;P2;SDS_P1;SDS_P2;PMS_P1;PMS_P2;Temp;Humidity;BMP_temperature;BMP_pressure;BME280_temperature;BME280_humidity;BME280_pressure;Samples;Min_cycle;Max_cycle;Signal;HPM_P1;HPM_P2
2023/07/17 00:01:15;;;;;;;2.97;1.52;;;22.40;82.80;;;;;;5074601;28;20439;-73
2023/07/17 00:03:41;;;;;;;7.10;1.73;;;22.50;83.20;;;;;;5074415;28;20040;-73
2023/07/17 00:06:07;;;;;;;4.43;1.63;;;22.40;83.60;;;;;;5074611;28;20047;-72
2023/07/17 00:08:32;;;;;;;5.53;1.75;;;22.40;84.00;;;;;;5074381;28;20377;-73
2023/07/17 00:10:58;;;;;;;6.18;1.80;;;22.40;84.00;;;;;;5074486;28;20100;-73
2023/07/17 00:13:24;;;;;;;6.18;1.65;;;22.40;84.30;;;;;;5074027;28;20505;-73
2023/07/17 00:15:50;;;;;;;5.45;1.92;;;22.30;84.30;;;;;;5074316;28;20103;-74
2023/07/17 00:18:15;;;;;;;6.60;1.83;;;22.30;84.50;;;;;;5056514;28;20433;-73
2023/07/17 00:20:41;;;;;;;5.60;2.05;;;22.30;84.60;;;;;;5074205;28;20571;-73
2023/07/17 00:23:06;;;;;;;7.72;1.80;;;22.20;84.70;;;;;;5074166;28;20020;-73
2023/07/17 00:25:32;;;;;;;5.82;1.85;;;22.30;84.80;;;;;;5073897;28;20024;-73
2023/07/17 00:27:57;;;;;;;4.38;1.27;;;22.20;84.80;;;;;;5073355;28;20047;-74
2023/07/17 00:30:23;;;;;;;4.85;1.45;;;22.20;84.80;;;;;;5074079;28;20358;-73
2023/07/17 00:32:49;;;;;;;5.55;1.60;;;22.20;85.00;;;;;;5074027;28;20028;-72
2023/07/17 00:35:14;;;;;;;6.05;2.13;;;22.20;84.90;;;;;;5073828;28;20020;-73
2023/07/17 00:37:42;;;;;;;4.95;1.67;;;22.10;84.90;;;;;;5073951;28;20432;-73
2023/07/17 00:40:08;;;;;;;4.28;1.42;;;22.20;85.10;;;;;;5055949;28;20082;-72
2023/07/17 00:42:34;;;;;;;3.72;1.52;;;22.10;85.20;;;;;;5073621;28;20055;-72
2023/07/17 00:45:00;;;;;;;4.82;1.42;;;22.00;85.30;;;;;;5073704;28;20466;-73
2023/07/17 00:47:26;;;;;;;8.85;2.97;;;22.00;85.20;;;;;;5073644;28;20024;-73
2023/07/17 00:49:52;;;;;;;2.70;1.40;;;22.00;85.30;;;;;;5073523;28;20021;-73
2023/07/17 00:52:17;;;;;;;6.20;1.40;;;22.00;85.30;;;;;;5073480;28;20028;-73
2023/07/17 00:54:43;;;;;;;4.13;1.58;;;21.90;85.50;;;;;;5073596;28;20108;-73
2023/07/17 00:57:11;;;;;;;4.90;1.52;;;21.90;85.60;;;;;;5073223;28;20490;-73
2023/07/17 00:59:37;;;;;;;4.10;1.50;;;21.90;85.60;;;;;;5073277;28;20047;-73
2023/07/17 01:02:04;;;;;;;4.70;1.70;;;21.90;85.70;;;;;;5073484;28;20039;-72
2023/07/17 01:04:29;;;;;;;4.35;1.83;;;21.90;85.70;;;;;;5073604;28;20020;-73
2023/07/17 01:06:55;;;;;;;4.05;1.67;;;21.80;85.80;;;;;;5073327;28;20090;-73
2023/07/17 01:09:21;;;;;;;4.47;1.40;;;21.80;86.00;;;;;;5073142;28;20028;-73
2023/07/17 01:11:47;;;;;;;4.57;1.60;;;21.80;85.90;;;;;;5073202;28;20020;-73
2023/07/17 01:14:17;;;;;;;3.63;1.73;;;21.90;85.90;;;;;;5073295;28;20210;-72
2023/07/17 01:16:45;;;;;;;4.53;1.30;;;21.80;86.00;;;;;;5072923;28;20447;-72
2023/07/17 01:19:11;;;;;;;3.00;1.10;;;21.80;86.00;;;;;;5072894;28;20016;-72
2023/07/17 01:21:43;;;;;;;5.65;1.77;;;21.70;86.10;;;;;;5073031;28;20462;-73
2023/07/17 01:24:09;;;;;;;4.13;1.80;;;21.70;86.20;;;;;;5073205;28;20032;-73
2023/07/17 01:26:35;;;;;;;3.15;1.25;;;21.70;86.10;;;;;;5073125;28;20025;-73
2023/07/17 01:29:00;;;;;;;2.78;1.10;;;21.70;86.30;;;;;;5073017;28;20086;-74
2023/07/17 01:31:26;;;;;;;7.70;1.52;;;21.60;86.40;;;;;;5073081;28;20017;-73
2023/07/17 01:33:51;;;;;;;3.72;1.15;;;21.60;86.40;;;;;;5073161;28;20029;-72
2023/07/17 01:36:17;;;;;;;6.03;1.40;;;21.60;86.50;;;;;;5073119;28;20473;-72
2023/07/17 01:38:42;;;;;;;2.55;1.30;;;21.60;86.70;;;;;;5071805;28;20492;-72
2023/07/17 01:41:08;;;;;;;3.75;1.27;;;21.60;86.60;;;;;;5072799;28;20388;-72
2023/07/17 01:43:33;;;;;;;5.63;2.00;;;21.60;86.70;;;;;;5073156;28;20079;-73
2023/07/17 01:45:59;;;;;;;5.97;1.63;;;21.60;86.70;;;;;;5072797;28;20021;-73
2023/07/17 01:48:25;;;;;;;4.10;1.52;;;21.60;86.70;;;;;;5071955;28;20546;-73
2023/07/17 01:50:50;;;;;;;3.85;1.60;;;21.60;86.80;;;;;;5072572;28;20038;-72
2023/07/17 01:53:20;;;;;;;4.28;1.38;;;21.50;86.90;;;;;;5072713;28;20036;-73
2023/07/17 01:55:46;;;;;;;4.78;1.35;;;21.60;86.90;;;;;;5072993;28;20122;-72
2023/07/17 01:58:12;;;;;;;7.57;2.22;;;21.50;86.90;;;;;;5072760;28;20043;-72
2023/07/17 02:00:37;;;;;;;5.82;1.83;;;21.50;87.00;;;;;;5073098;28;20362;-72
2023/07/17 02:03:03;;;;;;;4.32;1.80;;;21.40;87.10;;;;;;5072647;28;20500;-73
2023/07/17 02:05:28;;;;;;;6.60;2.00;;;21.40;87.10;;;;;;5072871;28;20028;-73
2023/07/17 02:07:54;;;;;;;4.72;1.55;;;21.40;87.30;;;;;;5072562;28;20024;-74
2023/07/17 02:10:20;;;;;;;6.07;2.53;;;21.30;87.40;;;;;;5072984;28;20533;-72
2023/07/17 02:12:45;;;;;;;6.45;1.90;;;21.30;87.50;;;;;;5072730;28;20486;-73
2023/07/17 02:15:12;;;;;;;3.10;1.55;;;21.30;87.50;;;;;;5072706;28;20110;-73
2023/07/17 02:17:37;;;;;;;4.25;1.73;;;21.30;87.60;;;;;;5072654;28;20025;-72
2023/07/17 02:20:08;;;;;;;4.95;1.90;;;21.30;87.60;;;;;;5072530;28;20029;-73
2023/07/17 02:22:34;;;;;;;5.82;1.88;;;21.20;87.60;;;;;;5072429;28;20086;-73
2023/07/17 02:24:59;;;;;;;3.08;1.52;;;21.30;87.60;;;;;;5072807;28;20020;-73
2023/07/17 02:27:25;;;;;;;5.35;2.30;;;21.20;87.60;;;;;;5072395;28;20482;-73
2023/07/17 02:29:51;;;;;;;3.50;1.60;;;21.20;87.80;;;;;;5072688;28;20305;-74
2023/07/17 02:32:16;;;;;;;5.53;1.73;;;21.20;87.80;;;;;;5072545;28;20036;-72
2023/07/17 02:34:42;;;;;;;2.92;1.30;;;21.20;87.80;;;;;;5072480;28;20020;-72
2023/07/17 02:37:11;;;;;;;4.18;1.83;;;21.10;87.80;;;;;;5072211;28;20104;-72
2023/07/17 02:39:36;;;;;;;4.55;1.50;;;21.10;87.90;;;;;;5072457;28;20024;-72
2023/07/17 02:42:02;;;;;;;5.03;1.90;;;21.10;88.10;;;;;;5054078;28;20036;-72
2023/07/17 02:44:28;;;;;;;7.28;1.98;;;21.10;88.00;;;;;;5072489;28;20100;-72
2023/07/17 02:46:53;;;;;;;3.25;1.52;;;21.10;88.10;;;;;;5072275;28;20035;-72
2023/07/17 02:49:19;;;;;;;5.85;1.50;;;21.00;88.20;;;;;;5072741;28;20021;-73
2023/07/17 02:51:45;;;;;;;4.32;1.75;;;21.00;88.20;;;;;;5057701;28;20039;-73
2023/07/17 02:54:11;;;;;;;6.60;2.10;;;21.00;88.40;;;;;;5075759;28;20393;-72
2023/07/17 02:56:37;;;;;;;6.82;2.15;;;21.00;88.40;;;;;;5076046;28;20466;-72
2023/07/17 02:59:03;;;;;;;6.28;2.05;;;21.00;88.50;;;;;;5075253;28;20040;-73
2023/07/17 03:01:28;;;;;;;4.70;1.88;;;21.00;88.50;;;;;;5075690;28;20125;-73
2023/07/17 03:03:54;;;;;;;6.20;1.95;;;21.00;88.60;;;;;;5056072;28;20070;-72
2023/07/17 03:06:19;;;;;;;5.50;1.80;;;21.00;88.60;;;;;;5075419;28;20028;-72
2023/07/17 03:08:45;;;;;;;5.95;1.92;;;20.90;88.70;;;;;;5075544;28;20103;-72
2023/07/17 03:11:10;;;;;;;6.00;2.22;;;20.80;88.70;;;;;;5075599;28;20085;-72
2023/07/17 03:13:36;;;;;;;3.95;1.80;;;20.80;88.80;;;;;;5057631;28;20025;-72
2023/07/17 03:16:02;;;;;;;3.78;1.65;;;20.80;88.90;;;;;;5075593;28;20056;-73
2023/07/17 03:18:27;;;;;;;5.47;1.63;;;20.80;88.80;;;;;;5075371;28;20043;-73
2023/07/17 03:20:56;;;;;;;9.38;1.85;;;20.80;88.90;;;;;;5075152;28;20465;-73
2023/07/17 03:23:22;;;;;;;7.85;2.50;;;20.80;89.00;;;;;;5057295;28;20025;-72
2023/07/17 03:25:47;;;;;;;4.28;1.90;;;20.80;89.00;;;;;;5075459;28;20020;-73
2023/07/17 03:28:13;;;;;;;6.32;1.85;;;20.70;88.90;;;;;;5075199;28;20043;-73
2023/07/17 03:30:41;;;;;;;5.93;2.35;;;20.80;88.90;;;;;;5075289;28;20077;-74
2023/07/17 03:33:07;;;;;;;5.07;2.15;;;20.70;88.90;;;;;;5075014;28;20465;-72
2023/07/17 03:35:36;;;;;;;8.70;2.13;;;20.70;88.90;;;;;;5075148;28;20021;-72
2023/07/17 03:38:01;;;;;;;5.75;1.67;;;20.70;88.90;;;;;;5075039;28;20511;-72
2023/07/17 03:40:27;;;;;;;3.92;1.83;;;20.70;89.00;;;;;;5075271;28;20060;-72
2023/07/17 03:42:52;;;;;;;3.90;1.75;;;20.70;89.30;;;;;;5075066;28;20036;-73
2023/07/17 03:45:18;;;;;;;6.60;1.90;;;20.60;89.30;;;;;;5074761;28;20029;-73
2023/07/17 03:47:44;;;;;;;7.43;2.10;;;20.60;89.40;;;;;;5074817;28;20036;-72
2023/07/17 03:50:10;;;;;;;7.50;2.33;;;20.60;89.40;;;;;;5074532;28;20017;-72
2023/07/17 03:52:35;;;;;;;4.57;1.85;;;20.60;89.50;;;;;;5074790;28;20035;-72
2023/07/17 03:55:01;;;;;;;4.40;2.00;;;20.60;89.60;;;;;;5074744;28;20159;-72
2023/07/17 03:57:27;;;;;;;4.60;1.75;;;20.60;89.70;;;;;;5074709;28;20056;-72
2023/07/17 03:59:54;;;;;;;9.07;2.03;;;20.50;89.70;;;;;;5074735;28;20056;-72
2023/07/17 04:02:20;;;;;;;3.30;1.75;;;20.50;89.70;;;;;;5073454;28;20037;-72
2023/07/17 04:04:46;;;;;;;5.10;1.40;;;20.50;89.90;;;;;;5074474;28;20029;-72
2023/07/17 04:07:12;;;;;;;6.60;1.90;;;20.50;89.90;;;;;;5056543;28;20021;-73
2023/07/17 04:09:38;;;;;;;5.40;1.90;;;20.50;90.00;;;;;;5074563;28;20021;-72
2023/07/17 04:12:05;;;;;;;5.28;1.73;;;20.40;90.00;;;;;;5074692;28;20374;-72
2023/07/17 04:14:31;;;;;;;6.50;2.20;;;20.40;89.90;;;;;;5074303;28;20440;-74
2023/07/17 04:16:57;;;;;;;3.70;2.17;;;20.40;90.00;;;;;;5074537;28;20025;-73
2023/07/17 04:19:22;;;;;;;7.53;2.83;;;20.40;90.10;;;;;;5073875;28;20457;-72
2023/07/17 04:21:48;;;;;;;5.60;2.85;;;20.40;90.00;;;;;;5074569;28;20032;-73
2023/07/17 04:24:13;;;;;;;6.90;2.40;;;20.40;90.00;;;;;;5074110;28;20013;-72
2023/07/17 04:26:39;;;;;;;5.75;2.53;;;20.40;90.00;;;;;;5074356;28;20095;-73
2023/07/17 04:29:06;;;;;;;5.13;2.88;;;20.40;90.10;;;;;;5073973;28;20036;-73
2023/07/17 04:31:32;;;;;;;6.90;2.75;;;20.40;90.10;;;;;;5074194;28;20031;-72
2023/07/17 04:33:58;;;;;;;5.82;2.55;;;20.30;90.10;;;;;;5073968;28;20021;-74
2023/07/17 04:36:23;;;;;;;4.45;2.42;;;20.40;90.40;;;;;;5073931;28;20376;-72
2023/07/17 04:38:49;;;;;;;5.40;2.70;;;20.30;90.10;;;;;;5073951;28;20025;-73
2023/07/17 04:41:16;;;;;;;6.32;2.92;;;20.30;90.20;;;;;;5073580;28;20036;-74
2023/07/17 04:43:42;;;;;;;7.30;2.63;;;20.30;90.20;;;;;;5074000;28;20090;-73
2023/07/17 04:46:07;;;;;;;5.75;2.53;;;20.30;90.20;;;;;;5073595;28;20025;-73
2023/07/17 04:48:33;;;;;;;5.55;2.33;;;20.30;90.20;;;;;;5073458;28;20033;-73
2023/07/17 04:50:59;;;;;;;7.82;2.90;;;20.30;90.30;;;;;;5073463;28;20466;-74
2023/07/17 04:53:24;;;;;;;7.70;2.58;;;20.30;90.30;;;;;;5073653;28;20029;-73
2023/07/17 04:55:50;;;;;;;5.47;2.67;;;20.20;90.30;;;;;;5073618;28;20055;-74
2023/07/17 04:58:17;;;;;;;7.18;3.50;;;20.30;90.30;;;;;;5073632;28;20108;-72
2023/07/17 05:00:46;;;;;;;9.02;3.30;;;20.30;90.40;;;;;;5073020;28;20024;-72
2023/07/17 05:03:12;;;;;;;10.25;3.67;;;20.30;90.40;;;;;;5055051;28;20039;-74
2023/07/17 05:05:38;;;;;;;5.70;3.40;;;20.30;90.40;;;;;;5055435;28;20028;-73
2023/07/17 05:08:04;;;;;;;6.80;3.08;;;20.30;90.50;;;;;;5073490;28;20466;-73
2023/07/17 05:10:29;;;;;;;5.53;3.08;;;20.30;90.50;;;;;;5073284;28;20085;-73
2023/07/17 05:12:55;;;;;;;9.85;3.90;;;20.30;90.50;;;;;;5073136;28;20029;-74
2023/07/17 05:15:21;;;;;;;9.85;3.30;;;20.30;90.50;;;;;;5073184;28;20338;-74
2023/07/17 05:17:46;;;;;;;9.43;3.95;;;20.30;90.60;;;;;;5072922;28;20024;-73
2023/07/17 05:20:13;;;;;;;9.63;3.75;;;20.30;90.60;;;;;;5055173;28;20017;-73
2023/07/17 05:22:38;;;;;;;9.98;3.63;;;20.20;90.70;;;;;;5073326;28;20466;-74
2023/07/17 05:25:05;;;;;;;9.05;3.75;;;20.30;90.60;;;;;;5073362;28;20031;-74
2023/07/17 05:27:30;;;;;;;8.93;3.65;;;20.30;90.70;;;;;;5073196;28;20024;-73
2023/07/17 05:29:56;;;;;;;8.65;4.28;;;20.30;90.60;;;;;;5073182;28;20090;-72
2023/07/17 05:32:22;;;;;;;8.43;4.47;;;20.30;90.80;;;;;;5072908;28;20043;-72
2023/07/17 05:34:48;;;;;;;9.13;4.32;;;20.30;90.70;;;;;;5073187;28;20017;-73
2023/07/17 05:37:15;;;;;;;5.97;4.00;;;20.30;90.70;;;;;;5072996;28;20115;-73
2023/07/17 05:39:41;;;;;;;10.55;4.22;;;20.30;90.70;;;;;;5073103;28;20123;-74
2023/07/17 05:42:07;;;;;;;12.30;5.22;;;20.30;90.70;;;;;;5073027;28;20034;-73
2023/07/17 05:44:32;;;;;;;12.80;5.15;;;20.30;90.80;;;;;;5072980;28;20031;-72
2023/07/17 05:46:58;;;;;;;8.07;4.22;;;20.30;90.80;;;;;;5072711;28;20029;-74
2023/07/17 05:49:23;;;;;;;8.18;3.42;;;20.40;90.90;;;;;;5073163;28;20028;-74
2023/07/17 05:51:49;;;;;;;9.25;4.30;;;20.40;90.90;;;;;;5072689;28;20489;-73
2023/07/17 05:54:14;;;;;;;10.45;4.97;;;20.40;91.10;;;;;;5072935;28;20124;-72
2023/07/17 05:56:40;;;;;;;10.65;4.90;;;20.40;91.10;;;;;;5072882;28;20440;-73
2023/07/17 05:59:06;;;;;;;5.82;4.00;;;20.40;91.20;;;;;;5072925;28;20529;-73
2023/07/17 06:01:31;;;;;;;10.07;5.47;;;20.50;91.20;;;;;;5072413;28;20043;-74
2023/07/17 06:03:57;;;;;;;12.20;5.93;;;20.50;91.30;;;;;;5072945;28;20052;-74
2023/07/17 06:06:22;;;;;;;11.93;5.10;;;20.60;91.50;;;;;;5054749;28;20023;-73
2023/07/17 06:08:48;;;;;;;8.45;4.88;;;20.60;91.30;;;;;;5072790;28;20074;-74
2023/07/17 06:11:13;;;;;;;9.45;4.53;;;20.70;91.40;;;;;;5072556;28;20025;-73
2023/07/17 06:13:39;;;;;;;8.95;5.15;;;20.80;91.20;;;;;;5072812;28;20074;-73
2023/07/17 06:16:04;;;;;;;13.80;5.50;;;20.90;91.20;;;;;;5072495;28;20028;-72
2023/07/17 06:18:30;;;;;;;7.85;4.70;;;20.90;91.40;;;;;;5072662;28;20373;-73
2023/07/17 06:20:56;;;;;;;15.13;6.47;;;20.90;91.00;;;;;;5072762;28;20029;-73
2023/07/17 06:23:21;;;;;;;7.03;4.57;;;21.00;90.90;;;;;;5054553;28;20020;-73
2023/07/17 06:25:47;;;;;;;10.85;5.53;;;21.00;90.80;;;;;;5075503;28;20027;-74
2023/07/17 06:28:13;;;;;;;10.40;5.43;;;21.10;90.60;;;;;;5076171;28;20016;-73
2023/07/17 06:30:38;;;;;;;6.35;4.10;;;21.10;90.40;;;;;;5076307;28;20032;-73
2023/07/17 06:33:04;;;;;;;6.32;4.30;;;21.20;90.30;;;;;;5076300;28;20017;-74
2023/07/17 06:35:29;;;;;;;11.38;5.03;;;21.20;90.20;;;;;;5076287;28;20031;-74
2023/07/17 06:37:55;;;;;;;11.23;5.20;;;21.30;90.20;;;;;;5076192;28;20021;-73
2023/07/17 06:40:21;;;;;;;13.07;4.43;;;21.30;90.10;;;;;;5076092;28;20031;-74
2023/07/17 06:42:47;;;;;;;7.15;3.42;;;21.40;89.90;;;;;;5075951;28;20036;-74
2023/07/17 06:45:12;;;;;;;10.50;3.42;;;21.40;89.70;;;;;;5076238;28;20350;-74
2023/07/17 06:47:38;;;;;;;13.00;5.28;;;21.40;89.50;;;;;;5076133;28;20031;-74
2023/07/17 06:50:04;;;;;;;9.10;4.22;;;21.40;88.80;;;;;;5075932;28;20048;-73
2023/07/17 06:52:30;;;;;;;10.25;5.10;;;21.40;89.20;;;;;;5075592;28;20448;-73
2023/07/17 06:54:56;;;;;;;12.88;5.80;;;21.30;89.30;;;;;;5076041;28;20481;-73
2023/07/17 06:57:22;;;;;;;13.35;5.63;;;21.20;89.50;;;;;;5057343;28;20385;-74
2023/07/17 06:59:48;;;;;;;5.78;3.22;;;21.20;89.70;;;;;;5075947;28;20077;-74
2023/07/17 07:02:13;;;;;;;13.85;5.88;;;21.30;89.70;;;;;;5075730;28;20420;-74
2023/07/17 07:04:39;;;;;;;9.95;5.07;;;21.40;88.70;;;;;;5075704;28;20031;-73
2023/07/17 07:07:05;;;;;;;10.68;5.10;;;21.40;88.50;;;;;;5075791;28;20504;-74
2023/07/17 07:09:30;;;;;;;9.60;5.20;;;21.40;88.40;;;;;;5075776;28;20411;-74
2023/07/17 07:11:56;;;;;;;6.10;3.58;;;21.50;88.00;;;;;;5075544;28;20025;-74
2023/07/17 07:14:21;;;;;;;8.20;3.42;;;21.50;88.10;;;;;;5075389;28;20041;-74
2023/07/17 07:16:47;;;;;;;12.85;5.40;;;21.50;88.20;;;;;;5075720;28;20029;-73
2023/07/17 07:19:12;;;;;;;11.38;4.75;;;21.60;87.60;;;;;;5075468;28;20032;-74
2023/07/17 07:21:40;;;;;;;7.35;4.00;;;21.60;88.00;;;;;;5075471;28;20066;-74
2023/07/17 07:24:06;;;;;;;9.07;4.13;;;21.70;88.00;;;;;;5075397;28;20029;-75
2023/07/17 07:26:32;;;;;;;8.07;4.55;;;21.80;87.60;;;;;;5074994;28;20029;-74
2023/07/17 07:28:57;;;;;;;12.80;5.70;;;21.80;86.80;;;;;;5057224;28;20024;-74
2023/07/17 07:31:25;;;;;;;9.25;5.32;;;21.90;86.60;;;;;;5075307;28;20028;-74
2023/07/17 07:33:53;;;;;;;11.13;4.93;;;21.90;86.50;;;;;;5075333;28;20074;-74
2023/07/17 07:36:19;;;;;;;8.93;5.13;;;22.00;86.40;;;;;;5075208;28;20086;-74
2023/07/17 07:38:45;;;;;;;8.18;4.65;;;22.00;85.80;;;;;;5075044;28;20017;-74
2023/07/17 07:41:11;;;;;;;9.38;4.88;;;22.00;85.80;;;;;;5074562;28;20025;-74
2023/07/17 07:43:36;;;;;;;10.35;5.03;;;22.10;85.10;;;;;;5075193;28;20032;-74
2023/07/17 07:46:02;;;;;;;8.30;4.45;;;22.10;84.70;;;;;;5075058;28;20025;-74
2023/07/17 07:48:30;;;;;;;7.75;3.97;;;22.10;84.90;;;;;;5074978;28;20031;-74
2023/07/17 07:50:55;;;;;;;6.45;4.10;;;22.20;85.00;;;;;;5074813;28;20036;-74
2023/07/17 07:53:21;;;;;;;7.10;4.53;;;22.20;83.70;;;;;;5074839;28;20398;-74
2023/07/17 07:55:46;;;;;;;5.78;4.13;;;22.20;83.50;;;;;;5074632;28;20028;-74
2023/07/17 07:58:12;;;;;;;8.38;4.75;;;22.30;84.00;;;;;;5074785;28;20355;-74
2023/07/17 08:00:37;;;;;;;5.88;3.72;;;22.30;83.40;;;;;;5074684;28;20488;-74
2023/07/17 08:03:04;;;;;;;6.95;4.15;;;22.40;84.20;;;;;;5074627;28;20039;-74
2023/07/17 08:05:29;;;;;;;9.70;4.35;;;22.40;84.40;;;;;;5074526;28;20017;-74
2023/07/17 08:07:55;;;;;;;6.40;4.05;;;22.50;81.70;;;;;;5074627;28;20029;-74
2023/07/17 08:10:20;;;;;;;8.88;3.63;;;22.50;83.40;;;;;;5056256;28;20025;-74
2023/07/17 08:12:46;;;;;;;4.60;3.40;;;22.50;82.30;;;;;;5074673;28;20032;-74
2023/07/17 08:15:12;;;;;;;9.18;3.63;;;22.50;83.40;;;;;;5056488;28;20070;-75
2023/07/17 08:17:37;;;;;;;7.35;4.05;;;22.60;81.80;;;;;;5074287;28;20024;-74
2023/07/17 08:20:04;;;;;;;7.78;4.43;;;22.50;81.40;;;;;;5074274;28;20033;-75
2023/07/17 08:22:29;;;;;;;6.78;3.90;;;22.50;82.40;;;;;;5074288;28;20029;-74
2023/07/17 08:24:55;;;;;;;5.40;3.70;;;22.60;82.60;;;;;;5073781;28;20034;-74
2023/07/17 08:27:20;;;;;;;8.98;4.20;;;22.70;83.10;;;;;;5074270;28;20017;-74
2023/07/17 08:29:46;;;;;;;6.85;4.28;;;22.70;81.80;;;;;;5055951;28;20459;-74
2023/07/17 08:32:11;;;;;;;4.45;3.42;;;22.80;81.70;;;;;;5074266;28;20028;-74
2023/07/17 08:34:37;;;;;;;4.95;3.15;;;22.80;82.50;;;;;;5073961;28;20020;-73
2023/07/17 08:37:03;;;;;;;8.45;4.13;;;22.90;83.10;;;;;;5073908;28;20028;-74
2023/07/17 08:39:28;;;;;;;8.65;3.85;;;22.90;81.30;;;;;;5073538;28;20485;-74
2023/07/17 08:41:54;;;;;;;9.00;3.95;;;22.90;81.90;;;;;;5073882;28;20033;-74
2023/07/17 08:44:20;;;;;;;7.50;4.28;;;22.90;81.80;;;;;;5074120;28;20381;-74
2023/07/17 08:46:47;;;;;;;8.48;4.10;;;22.90;81.60;;;;;;5073464;28;20473;-73
2023/07/17 08:49:18;;;;;;;9.93;4.72;;;23.00;79.60;;;;;;5055723;28;20023;-73
2023/07/17 08:51:47;;;;;;;8.63;4.53;;;23.10;79.40;;;;;;5072940;28;20028;-73
2023/07/17 08:54:14;;;;;;;9.23;3.88;;;23.00;80.10;;;;;;5072990;28;20104;-73
2023/07/17 08:56:42;;;;;;;6.28;4.00;;;23.00;80.90;;;;;;5072690;28;20059;-74
2023/07/17 08:59:08;;;;;;;5.93;3.67;;;23.10;80.50;;;;;;5072915;28;20389;-73
2023/07/17 09:01:33;;;;;;;7.22;4.05;;;23.10;80.40;;;;;;5072588;28;20107;-74
2023/07/17 09:03:59;;;;;;;8.13;4.47;;;23.10;80.60;;;;;;5073011;28;20059;-74
2023/07/17 09:06:27;;;;;;;8.30;4.57;;;23.10;78.20;;;;;;5072783;28;20043;-73
2023/07/17 09:08:53;;;;;;;8.85;4.88;;;23.10;80.00;;;;;;5071153;28;20027;-73
2023/07/17 09:11:19;;;;;;;5.95;3.60;;;23.10;79.60;;;;;;5072533;28;20104;-73
2023/07/17 09:13:47;;;;;;;6.53;4.00;;;23.10;80.70;;;;;;5072617;28;20043;-73
2023/07/17 09:16:22;;;;;;;8.55;4.10;;;23.10;79.20;;;;;;5072565;28;20028;-73
2023/07/17 09:18:49;;;;;;;7.95;3.88;;;23.10;79.60;;;;;;5072701;28;20099;-73
2023/07/17 09:21:19;;;;;;;8.05;5.13;;;23.10;80.30;;;;;;5072533;28;20028;-74
2023/07/17 09:23:46;;;;;;;5.50;3.42;;;23.10;79.40;;;;;;5072397;28;20089;-75
2023/07/17 09:26:13;;;;;;;7.95;3.50;;;23.20;81.30;;;;;;5072455;28;20446;-74
2023/07/17 09:28:49;;;;;;;8.95;3.78;;;23.20;78.40;;;;;;5072371;28;20052;-75
2023/07/17 09:31:25;;;;;;;6.28;3.45;;;23.30;80.00;;;;;;5072342;28;20103;-75
2023/07/17 09:33:51;;;;;;;5.13;3.13;;;23.30;80.20;;;;;;5054396;28;20016;-75
2023/07/17 09:36:17;;;;;;;6.07;3.22;;;23.40;78.20;;;;;;5072278;28;20051;-75
2023/07/17 09:38:42;;;;;;;4.10;3.38;;;23.40;80.10;;;;;;5071907;28;20025;-73
2023/07/17 09:41:19;;;;;;;4.60;3.13;;;23.40;77.70;;;;;;5071995;28;20108;-72
2023/07/17 09:43:59;;;;;;;4.75;3.67;;;23.40;80.30;;;;;;5072250;28;20025;-74
2023/07/17 09:46:26;;;;;;;6.25;3.35;;;23.50;79.60;;;;;;5072069;28;20119;-73
2023/07/17 09:48:54;;;;;;;6.13;3.92;;;23.40;78.50;;;;;;5072204;28;20032;-74
2023/07/17 09:51:21;;;;;;;4.10;3.20;;;23.30;77.20;;;;;;5017219;28;1057173;-73
2023/07/17 09:53:47;;;;;;;4.97;3.53;;;23.40;79.70;;;;;;5054966;28;20107;-74
2023/07/17 09:56:17;;;;;;;5.22;3.40;;;23.40;78.00;;;;;;5072928;28;20104;-73
2023/07/17 09:58:47;;;;;;;6.63;3.55;;;23.40;79.60;;;;;;5072787;28;20126;-73
2023/07/17 10:01:18;;;;;;;5.60;3.33;;;23.40;78.60;;;;;;5076333;28;20024;-73
2023/07/17 10:03:50;;;;;;;6.00;3.47;;;23.40;78.80;;;;;;5076995;28;20119;-74
2023/07/17 10:06:20;;;;;;;6.35;3.30;;;23.40;78.60;;;;;;5075521;28;20354;-73
2023/07/17 10:08:49;;;;;;;7.97;3.55;;;23.40;79.30;;;;;;5076881;28;20024;-74
2023/07/17 10:11:16;;;;;;;6.88;3.85;;;23.50;78.50;;;;;;5076793;28;20016;-74
2023/07/17 10:13:43;;;;;;;7.55;3.90;;;23.50;79.20;;;;;;5058770;28;20028;-74
2023/07/17 10:16:13;;;;;;;5.45;3.17;;;23.50;78.80;;;;;;5076675;28;20485;-74
2023/07/17 10:18:51;;;;;;;6.28;3.92;;;23.60;79.10;;;;;;5076554;28;20069;-74
2023/07/17 10:21:18;;;;;;;7.28;3.90;;;23.50;78.30;;;;;;5076272;28;20043;-74
2023/07/17 10:23:46;;;;;;;5.82;3.10;;;23.50;78.60;;;;;;5076039;28;20062;-74
2023/07/17 10:26:14;;;;;;;5.22;3.20;;;23.50;76.90;;;;;;5076507;28;20107;-74
2023/07/17 10:28:41;;;;;;;7.13;3.63;;;23.50;78.00;;;;;;5058315;28;20016;-74
2023/07/17 10:31:17;;;;;;;7.55;3.83;;;23.50;78.10;;;;;;5076488;28;20093;-73
2023/07/17 10:33:50;;;;;;;5.63;3.13;;;23.50;77.80;;;;;;5076235;28;20028;-74
2023/07/17 10:36:16;;;;;;;7.97;3.70;;;23.60;79.30;;;;;;5076205;28;20037;-74
2023/07/17 10:38:49;;;;;;;4.15;2.83;;;23.60;77.70;;;;;;5076088;28;20044;-73
2023/07/17 10:41:15;;;;;;;8.38;4.10;;;23.60;77.80;;;;;;5076111;28;20021;-73
2023/07/17 10:43:56;;;;;;;5.90;3.40;;;23.60;76.80;;;;;;5076114;28;20046;-74
2023/07/17 10:46:28;;;;;;;6.28;3.38;;;23.60;78.10;;;;;;5058172;28;20020;-73
2023/07/17 10:49:20;;;;;;;6.07;3.30;;;23.70;78.90;;;;;;5075950;28;20036;-73
2023/07/17 10:51:48;;;;;;;5.40;3.33;;;23.70;78.50;;;;;;5072013;28;20044;-73
2023/07/17 10:54:15;;;;;;;6.25;3.13;;;23.70;77.90;;;;;;5075874;28;20013;-74
2023/07/17 10:56:45;;;;;;;5.80;3.13;;;23.70;77.70;;;;;;5076018;28;20078;-74
2023/07/17 10:59:11;;;;;;;7.78;3.63;;;23.60;78.70;;;;;;5075850;28;20418;-73
2023/07/17 11:01:36;;;;;;;5.25;3.20;;;23.70;79.30;;;;;;5076016;28;20105;-72
2023/07/17 11:04:07;;;;;;;6.28;3.67;;;23.70;79.20;;;;;;5075364;28;20481;-73
2023/07/17 11:06:32;;;;;;;7.97;3.67;;;23.80;79.30;;;;;;5075881;28;20039;-73
2023/07/17 11:08:59;;;;;;;4.45;3.40;;;23.70;79.40;;;;;;5075615;28;20107;-73
2023/07/17 11:11:25;;;;;;;5.43;3.42;;;23.80;78.80;;;;;;5075291;28;20021;-74
2023/07/17 11:13:52;;;;;;;7.80;4.22;;;23.80;78.40;;;;;;5075832;28;20029;-73
2023/07/17 11:16:20;;;;;;;4.10;3.03;;;23.70;78.20;;;;;;5075574;28;20051;-73
2023/07/17 11:18:54;;;;;;;4.03;2.90;;;23.80;78.80;;;;;;5075238;28;20028;-75
2023/07/17 11:21:22;;;;;;;5.80;3.20;;;23.80;78.90;;;;;;5075375;28;20416;-73
2023/07/17 11:23:55;;;;;;;6.43;3.42;;;23.90;76.80;;;;;;5075439;28;20021;-74
2023/07/17 11:26:28;;;;;;;4.70;3.13;;;23.90;77.80;;;;;;5075567;28;20024;-74
2023/07/17 11:28:56;;;;;;;5.00;3.17;;;23.90;78.60;;;;;;5074095;28;20028;-74
2023/07/17 11:31:25;;;;;;;6.57;3.50;;;23.90;78.30;;;;;;5075273;28;20112;-75
2023/07/17 11:33:58;;;;;;;4.47;2.55;;;23.90;77.80;;;;;;5056862;28;20048;-75
2023/07/17 11:36:42;;;;;;;5.35;2.97;;;23.90;78.60;;;;;;5075085;28;20032;-73
2023/07/17 11:39:20;;;;;;;4.63;2.70;;;23.90;76.80;;;;;;5075086;28;20103;-73
2023/07/17 11:41:51;;;;;;;5.50;3.10;;;23.90;77.80;;;;;;5075103;28;20028;-73
2023/07/17 11:44:37;;;;;;;5.30;2.97;;;23.90;77.80;;;;;;5075154;28;20044;-73
2023/07/17 11:47:07;;;;;;;4.57;3.25;;;24.00;76.80;;;;;;5056780;28;20448;-74
2023/07/17 11:49:34;;;;;;;7.07;3.22;;;24.00;76.10;;;;;;5074744;28;20031;-74
2023/07/17 11:52:00;;;;;;;5.32;2.88;;;24.00;76.00;;;;;;5074679;28;20029;-75
2023/07/17 11:54:44;;;;;;;3.90;2.55;;;24.00;77.00;;;;;;5056901;28;20354;-74
2023/07/17 11:57:10;;;;;;;3.47;2.72;;;24.00;77.00;;;;;;5074658;28;20067;-75
2023/07/17 11:59:36;;;;;;;4.60;2.60;;;24.00;77.60;;;;;;5074626;28;20020;-75
2023/07/17 12:02:02;;;;;;;4.18;2.60;;;24.00;75.60;;;;;;5056400;28;20040;-75
2023/07/17 12:04:32;;;;;;;4.40;2.50;;;24.00;78.20;;;;;;5056609;28;20426;-74
2023/07/17 12:07:00;;;;;;;4.15;2.72;;;24.00;77.60;;;;;;5074484;28;20020;-75
2023/07/17 12:09:26;;;;;;;3.05;2.10;;;24.00;78.00;;;;;;5056378;28;20386;-75
2023/07/17 12:11:52;;;;;;;3.10;1.90;;;24.00;76.80;;;;;;5074529;28;20036;-75
2023/07/17 12:14:18;;;;;;;3.67;2.28;;;24.00;77.40;;;;;;5074404;28;20393;-74
2023/07/17 12:16:45;;;;;;;3.42;2.22;;;23.90;77.70;;;;;;5074146;28;20022;-75
2023/07/17 12:19:11;;;;;;;2.28;1.23;;;23.80;77.40;;;;;;5074121;28;20031;-74
2023/07/17 12:21:37;;;;;;;3.00;1.45;;;23.70;75.00;;;;;;5073845;28;20032;-75
2023/07/17 12:24:03;;;;;;;7.82;1.95;;;23.70;75.20;;;;;;5073860;28;20048;-75
2023/07/17 12:26:28;;;;;;;2.38;1.52;;;23.70;75.00;;;;;;5056164;28;20044;-74
2023/07/17 12:28:54;;;;;;;4.03;2.10;;;23.80;73.90;;;;;;5074032;28;20495;-74
2023/07/17 12:31:19;;;;;;;4.65;2.20;;;23.80;72.40;;;;;;5073829;28;20031;-73
2023/07/17 12:33:45;;;;;;;2.85;2.03;;;23.80;74.20;;;;;;5074144;28;20021;-72
2023/07/17 12:36:11;;;;;;;4.13;2.03;;;23.80;74.40;;;;;;5073924;28;20020;-73
2023/07/17 12:38:36;;;;;;;3.08;1.88;;;23.80;75.50;;;;;;5073919;28;20027;-73
2023/07/17 12:41:02;;;;;;;5.32;2.08;;;23.80;73.50;;;;;;5073658;28;20542;-74
2023/07/17 12:43:27;;;;;;;3.92;2.40;;;23.90;74.80;;;;;;5074095;28;20424;-74